Tropical Cyclones
[Index]
Main Index Home Page Stock Weather Photos Extreme Storms Discussion Storm News and Storm Chasing Reports Tropical Cyclones / Hurricanes / Typhoons Weather Data and Links Wild Fires / Bushfires Weather Observation Techniques Weather Picture Catalogue Tornado Pictures and Reports Stock Video Footage and DVDs for sale
Season 1976-1977 Tropical Cyclone HARRY Track Map
Season 1976-1977 Summaries: [BoM-AU] [JTWC-AU] [JTWC-SIO] [JTWC-SPAC] [JTWC-SH]
<<- Previous TC | BoM 1976-1977 Season | Next TC ->>

click for intensity scale information  Lat/long Grid: Show Hide

 Date Labels: Show Hide

Bureau of Meteorology Tropical Cyclone Data

Name: HARRY
Number: 562 / 197677_01

15 Dec 1976 00:00 UTC to 21 Dec 1976 00:00 UTC

    date/time    lat    long    hPa   cat  kts
1976-12-15 00    8.4   103.0   1004                     
1976-12-15 03    8.4   102.6   1004                     
1976-12-15 06    8.5   102.2   1004                     
1976-12-15 09    8.5   101.3   1003                     
1976-12-15 12    8.6   101.4   1003                     
1976-12-15 15    8.6   101.0   1003                     
1976-12-15 18    8.7   100.8   1002                     
1976-12-15 21    8.7   100.6   1001                     
1976-12-16 00    8.8   100.3   1000                     
1976-12-16 03    8.8   100.0   1000                     
1976-12-16 06    8.9    99.6    998                     
1976-12-16 09    8.9    99.3    996                     
1976-12-16 12    9.0    99.0    994    1                
1976-12-16 15    9.1    98.8    992    1                
1976-12-16 18    9.3    98.4    990    1                
1976-12-16 21    9.4    97.8    988    1                
1976-12-17 00    9.5    97.2    985    2                
1976-12-17 03    9.6    96.9    985    2                
1976-12-17 06    9.7    96.6    985    2                
1976-12-17 09    9.8    96.3    985    2                
1976-12-17 12   10.0    96.0    985    2                
1976-12-17 15   10.2    95.8    985    2                
1976-12-17 18   10.5    95.7    985    2                
1976-12-17 21   10.8    95.5    985    2                
1976-12-18 00   11.0    95.2    985    2                
1976-12-18 03   11.5    95.0    985    2                
1976-12-18 06   12.0    94.8    987    1                
1976-12-18 09   12.5    94.4    990    1                
1976-12-18 12   13.0    94.0    992    1                
1976-12-18 15   13.1    93.2    994    1                
1976-12-18 18   13.2    92.4    996                     
1976-12-18 21   13.2    91.6    998                     
1976-12-19 00   13.3    90.8   1000                     
1976-12-19 03   13.4    90.4   1000                     
1976-12-19 06   13.5    90.1   1000                     
1976-12-19 09   13.7    88.8   1000                     
1976-12-19 12   13.8    88.5   1000                     
1976-12-19 15   13.9    87.8   1000                     
1976-12-19 18   14.0    87.2   1001                     
1976-12-19 21   14.2    86.5   1001                     
1976-12-20 00   14.5    85.9   1002                     
1976-12-20 03   14.8    85.0   1002                     
1976-12-20 06   15.1    84.4   1002                     
1976-12-20 09   15.4    83.7   1002                     
1976-12-20 12   15.7    83.1   1003                     
1976-12-20 15   16.0    82.5   1004                     
1976-12-20 18   16.3    81.9   1005                     
1976-12-20 21   16.6    81.2   1006                     
1976-12-21 00   17.0    80.4   1009                     
Winds are 10-min average.

Tropical cyclone tracks developed by Michael Bath using data from the Bureau of Meteorology and Google Maps.


[Australian Severe Weather index] [Copyright Notice] [Email Contacts] [Search This Site] [Privacy Policy]
Document: tropical_cyclone_harry.htm Updated: 30 May 2013